Weather at Chinazón Airport

Public forecast

Using degrees Celsius for public forecast. Weather courtesy of forecast.io.

Closest aviation weather report (METAR) to Chinazón Airport

Report is more than 6 hours old.

Closest report is Dr. Antonio Nicolás Briceño Airport, 20.7 nm (38.4 km) E.

2023/03/20 15:03 (retrieved 1 day ago)

SVVL 201503Z AUTO 11005KT NCD 20/15 Q////

Closest aviation forecast (TAF) to Chinazón Airport

Closest forecast is Camilo Daza International Airport, 125.8 nm (233.0 km) SW.

2023/03/21 12:00 (retrieved 5 hours ago)

TAF SKCC 211030Z 2112/2212 VRB02KT 5000 VCFG SCT010 BECMG 2113/2115 35010KT 9999 NSW SCT020 TEMPO 2120/2123 RA SCT017CB BECMG 2200/2202 VRB02KT TEMPO 2210/2212 5000 BCFG SCT010 TX30/2118Z TN22/2211Z